sensor_id;sensor_type;location;lat;lon;timestamp;P1;durP1;ratioP1;P2;durP2;ratioP2
26478;SDS011;14163;-26.142;27.992;2022-07-23T00:00:33;19.97;;;18.00;;
26478;SDS011;14163;-26.142;27.992;2022-07-23T00:03:02;22.10;;;19.27;;
26478;SDS011;14163;-26.142;27.992;2022-07-23T00:05:32;23.00;;;20.63;;
26478;SDS011;14163;-26.142;27.992;2022-07-23T00:08:02;24.43;;;21.63;;
26478;SDS011;14163;-26.142;27.992;2022-07-23T00:10:33;23.80;;;21.33;;
26478;SDS011;14163;-26.142;27.992;2022-07-23T00:13:03;27.30;;;22.50;;
26478;SDS011;14163;-26.142;27.992;2022-07-23T00:15:34;25.50;;;21.53;;
26478;SDS011;14163;-26.142;27.992;2022-07-23T00:18:04;24.50;;;22.00;;
26478;SDS011;14163;-26.142;27.992;2022-07-23T00:20:34;26.13;;;21.00;;
26478;SDS011;14163;-26.142;27.992;2022-07-23T00:23:03;22.30;;;20.00;;
26478;SDS011;14163;-26.142;27.992;2022-07-23T00:25:33;24.60;;;20.43;;
26478;SDS011;14163;-26.142;27.992;2022-07-23T00:28:02;23.30;;;19.20;;
26478;SDS011;14163;-26.142;27.992;2022-07-23T00:30:34;23.67;;;20.00;;
26478;SDS011;14163;-26.142;27.992;2022-07-23T00:33:04;20.60;;;18.50;;
26478;SDS011;14163;-26.142;27.992;2022-07-23T00:35:35;21.80;;;18.93;;
26478;SDS011;14163;-26.142;27.992;2022-07-23T00:38:07;24.43;;;19.40;;
26478;SDS011;14163;-26.142;27.992;2022-07-23T00:40:37;21.33;;;17.50;;
26478;SDS011;14163;-26.142;27.992;2022-07-23T00:43:07;20.10;;;17.87;;
26478;SDS011;14163;-26.142;27.992;2022-07-23T00:45:39;23.93;;;16.80;;
26478;SDS011;14163;-26.142;27.992;2022-07-23T00:50:41;19.53;;;16.33;;
26478;SDS011;14163;-26.142;27.992;2022-07-23T00:53:11;17.20;;;15.40;;
26478;SDS011;14163;-26.142;27.992;2022-07-23T00:55:41;19.20;;;15.60;;
26478;SDS011;14163;-26.142;27.992;2022-07-23T00:58:11;16.80;;;15.00;;
26478;SDS011;14163;-26.142;27.992;2022-07-23T01:00:43;18.00;;;16.20;;
26478;SDS011;14163;-26.142;27.992;2022-07-23T01:03:13;16.10;;;14.60;;
26478;SDS011;14163;-26.142;27.992;2022-07-23T01:05:42;17.97;;;16.23;;
26478;SDS011;14163;-26.142;27.992;2022-07-23T01:08:13;17.27;;;15.50;;
26478;SDS011;14163;-26.142;27.992;2022-07-23T01:10:44;16.60;;;15.00;;
26478;SDS011;14163;-26.142;27.992;2022-07-23T01:13:17;20.57;;;17.47;;
26478;SDS011;14163;-26.142;27.992;2022-07-23T01:15:48;19.33;;;15.10;;
26478;SDS011;14163;-26.142;27.992;2022-07-23T01:18:17;16.67;;;14.90;;
26478;SDS011;14163;-26.142;27.992;2022-07-23T01:20:47;20.33;;;16.40;;
26478;SDS011;14163;-26.142;27.992;2022-07-23T01:23:17;16.60;;;15.00;;
26478;SDS011;14163;-26.142;27.992;2022-07-23T01:25:49;18.57;;;16.60;;
26478;SDS011;14163;-26.142;27.992;2022-07-23T01:28:21;21.23;;;17.97;;
26478;SDS011;14163;-26.142;27.992;2022-07-23T01:30:50;19.53;;;17.30;;
26478;SDS011;14163;-26.142;27.992;2022-07-23T01:33:19;18.80;;;16.90;;
26478;SDS011;14163;-26.142;27.992;2022-07-23T01:35:49;19.67;;;17.23;;
26478;SDS011;14163;-26.142;27.992;2022-07-23T01:38:19;18.77;;;16.17;;
26478;SDS011;14163;-26.142;27.992;2022-07-23T01:40:50;18.50;;;16.53;;
26478;SDS011;14163;-26.142;27.992;2022-07-23T01:43:19;18.93;;;17.07;;
26478;SDS011;14163;-26.142;27.992;2022-07-23T01:45:48;17.53;;;15.73;;
26478;SDS011;14163;-26.142;27.992;2022-07-23T01:48:17;17.83;;;16.00;;
26478;SDS011;14163;-26.142;27.992;2022-07-23T01:50:46;21.13;;;17.07;;
26478;SDS011;14163;-26.142;27.992;2022-07-23T01:53:15;17.77;;;15.97;;
26478;SDS011;14163;-26.142;27.992;2022-07-23T01:55:46;18.90;;;16.90;;
26478;SDS011;14163;-26.142;27.992;2022-07-23T01:58:16;24.47;;;16.00;;
26478;SDS011;14163;-26.142;27.992;2022-07-23T02:00:45;18.93;;;17.10;;
26478;SDS011;14163;-26.142;27.992;2022-07-23T02:03:14;18.23;;;15.23;;
26478;SDS011;14163;-26.142;27.992;2022-07-23T02:05:44;18.37;;;16.57;;
26478;SDS011;14163;-26.142;27.992;2022-07-23T02:08:13;16.83;;;14.80;;
26478;SDS011;14163;-26.142;27.992;2022-07-23T02:10:43;16.57;;;15.00;;
26478;SDS011;14163;-26.142;27.992;2022-07-23T02:13:17;15.93;;;14.33;;
26478;SDS011;14163;-26.142;27.992;2022-07-23T02:15:46;16.87;;;14.90;;
26478;SDS011;14163;-26.142;27.992;2022-07-23T02:18:16;19.13;;;17.00;;
26478;SDS011;14163;-26.142;27.992;2022-07-23T02:20:45;18.20;;;16.17;;
26478;SDS011;14163;-26.142;27.992;2022-07-23T02:23:14;17.60;;;14.63;;
26478;SDS011;14163;-26.142;27.992;2022-07-23T02:25:46;16.10;;;14.33;;
26478;SDS011;14163;-26.142;27.992;2022-07-23T02:28:15;14.37;;;12.80;;
26478;SDS011;14163;-26.142;27.992;2022-07-23T02:30:45;13.40;;;12.10;;
26478;SDS011;14163;-26.142;27.992;2022-07-23T02:33:14;13.83;;;12.53;;
26478;SDS011;14163;-26.142;27.992;2022-07-23T02:35:43;12.60;;;11.30;;
26478;SDS011;14163;-26.142;27.992;2022-07-23T02:38:12;14.87;;;12.30;;
26478;SDS011;14163;-26.142;27.992;2022-07-23T02:40:41;12.73;;;11.43;;
26478;SDS011;14163;-26.142;27.992;2022-07-23T02:43:12;11.70;;;10.60;;
26478;SDS011;14163;-26.142;27.992;2022-07-23T02:45:41;12.40;;;10.93;;
26478;SDS011;14163;-26.142;27.992;2022-07-23T02:48:10;12.90;;;10.80;;
26478;SDS011;14163;-26.142;27.992;2022-07-23T02:50:40;9.73;;;8.83;;
26478;SDS011;14163;-26.142;27.992;2022-07-23T02:53:10;12.30;;;11.10;;
26478;SDS011;14163;-26.142;27.992;2022-07-23T02:55:39;10.13;;;9.03;;
26478;SDS011;14163;-26.142;27.992;2022-07-23T02:58:08;11.43;;;10.17;;
26478;SDS011;14163;-26.142;27.992;2022-07-23T03:00:39;11.63;;;10.43;;
26478;SDS011;14163;-26.142;27.992;2022-07-23T03:03:08;11.17;;;10.07;;
26478;SDS011;14163;-26.142;27.992;2022-07-23T03:05:38;10.70;;;9.60;;
26478;SDS011;14163;-26.142;27.992;2022-07-23T03:08:07;10.40;;;9.40;;
26478;SDS011;14163;-26.142;27.992;2022-07-23T03:10:36;12.47;;;11.20;;
26478;SDS011;14163;-26.142;27.992;2022-07-23T03:13:05;11.20;;;10.10;;
26478;SDS011;14163;-26.142;27.992;2022-07-23T03:15:34;11.67;;;10.50;;
26478;SDS011;14163;-26.142;27.992;2022-07-23T03:18:06;10.77;;;9.67;;
26478;SDS011;14163;-26.142;27.992;2022-07-23T03:20:36;10.90;;;9.90;;
26478;SDS011;14163;-26.142;27.992;2022-07-23T03:23:05;11.50;;;10.40;;
26478;SDS011;14163;-26.142;27.992;2022-07-23T03:25:36;11.70;;;10.50;;
26478;SDS011;14163;-26.142;27.992;2022-07-23T03:28:05;12.40;;;10.90;;
26478;SDS011;14163;-26.142;27.992;2022-07-23T03:30:34;11.63;;;10.47;;
26478;SDS011;14163;-26.142;27.992;2022-07-23T03:33:03;11.10;;;10.00;;
26478;SDS011;14163;-26.142;27.992;2022-07-23T03:35:34;11.30;;;10.10;;
26478;SDS011;14163;-26.142;27.992;2022-07-23T03:38:03;10.13;;;9.23;;
26478;SDS011;14163;-26.142;27.992;2022-07-23T03:40:32;11.80;;;10.50;;
26478;SDS011;14163;-26.142;27.992;2022-07-23T03:43:02;9.87;;;8.97;;
26478;SDS011;14163;-26.142;27.992;2022-07-23T03:45:31;9.80;;;8.90;;
26478;SDS011;14163;-26.142;27.992;2022-07-23T03:48:01;10.47;;;9.50;;
26478;SDS011;14163;-26.142;27.992;2022-07-23T03:50:32;9.80;;;8.90;;
26478;SDS011;14163;-26.142;27.992;2022-07-23T03:53:03;9.37;;;8.50;;
26478;SDS011;14163;-26.142;27.992;2022-07-23T03:55:32;10.23;;;9.30;;
26478;SDS011;14163;-26.142;27.992;2022-07-23T03:58:01;10.03;;;8.90;;
26478;SDS011;14163;-26.142;27.992;2022-07-23T04:00:30;9.87;;;8.77;;
26478;SDS011;14163;-26.142;27.992;2022-07-23T04:03:00;10.13;;;8.37;;
26478;SDS011;14163;-26.142;27.992;2022-07-23T04:05:29;10.07;;;8.23;;
26478;SDS011;14163;-26.142;27.992;2022-07-23T04:08:00;9.70;;;8.70;;
26478;SDS011;14163;-26.142;27.992;2022-07-23T04:10:29;13.43;;;9.33;;
26478;SDS011;14163;-26.142;27.992;2022-07-23T04:12:58;9.80;;;8.50;;
26478;SDS011;14163;-26.142;27.992;2022-07-23T04:15:27;9.40;;;8.50;;
26478;SDS011;14163;-26.142;27.992;2022-07-23T04:17:56;10.00;;;9.00;;
26478;SDS011;14163;-26.142;27.992;2022-07-23T04:20:26;9.10;;;8.30;;
26478;SDS011;14163;-26.142;27.992;2022-07-23T04:22:57;9.00;;;8.20;;
26478;SDS011;14163;-26.142;27.992;2022-07-23T04:25:26;9.50;;;8.60;;
26478;SDS011;14163;-26.142;27.992;2022-07-23T04:27:56;9.53;;;8.63;;
26478;SDS011;14163;-26.142;27.992;2022-07-23T04:30:25;9.13;;;8.33;;
26478;SDS011;14163;-26.142;27.992;2022-07-23T04:32:55;9.17;;;8.37;;
26478;SDS011;14163;-26.142;27.992;2022-07-23T04:35:24;9.60;;;8.60;;
26478;SDS011;14163;-26.142;27.992;2022-07-23T04:37:54;12.97;;;9.40;;
26478;SDS011;14163;-26.142;27.992;2022-07-23T04:40:26;8.37;;;7.50;;
26478;SDS011;14163;-26.142;27.992;2022-07-23T04:42:58;11.83;;;8.70;;
26478;SDS011;14163;-26.142;27.992;2022-07-23T04:45:28;9.90;;;8.87;;
26478;SDS011;14163;-26.142;27.992;2022-07-23T04:47:57;9.00;;;8.20;;
26478;SDS011;14163;-26.142;27.992;2022-07-23T04:50:27;10.30;;;9.33;;
26478;SDS011;14163;-26.142;27.992;2022-07-23T04:52:58;9.87;;;8.83;;
26478;SDS011;14163;-26.142;27.992;2022-07-23T04:55:28;10.50;;;9.40;;
26478;SDS011;14163;-26.142;27.992;2022-07-23T04:57:58;10.07;;;9.07;;
26478;SDS011;14163;-26.142;27.992;2022-07-23T05:00:28;11.37;;;10.00;;
26478;SDS011;14163;-26.142;27.992;2022-07-23T05:02:57;12.87;;;10.20;;
26478;SDS011;14163;-26.142;27.992;2022-07-23T05:05:27;10.27;;;9.27;;
26478;SDS011;14163;-26.142;27.992;2022-07-23T05:07:58;10.30;;;9.37;;
26478;SDS011;14163;-26.142;27.992;2022-07-23T05:10:27;11.50;;;8.90;;
26478;SDS011;14163;-26.142;27.992;2022-07-23T05:12:56;10.50;;;9.33;;
26478;SDS011;14163;-26.142;27.992;2022-07-23T05:15:25;10.53;;;9.43;;
26478;SDS011;14163;-26.142;27.992;2022-07-23T05:17:56;9.33;;;8.43;;
26478;SDS011;14163;-26.142;27.992;2022-07-23T05:20:25;11.57;;;9.47;;
26478;SDS011;14163;-26.142;27.992;2022-07-23T05:22:55;12.60;;;10.47;;
26478;SDS011;14163;-26.142;27.992;2022-07-23T05:25:26;11.27;;;10.17;;
26478;SDS011;14163;-26.142;27.992;2022-07-23T05:27:57;18.20;;;11.60;;
26478;SDS011;14163;-26.142;27.992;2022-07-23T05:30:26;14.07;;;12.57;;
26478;SDS011;14163;-26.142;27.992;2022-07-23T05:32:55;16.63;;;12.37;;
26478;SDS011;14163;-26.142;27.992;2022-07-23T05:35:25;14.30;;;12.77;;
26478;SDS011;14163;-26.142;27.992;2022-07-23T05:37:54;15.23;;;12.40;;
26478;SDS011;14163;-26.142;27.992;2022-07-23T05:40:25;16.37;;;13.10;;
26478;SDS011;14163;-26.142;27.992;2022-07-23T05:42:54;15.30;;;12.77;;
26478;SDS011;14163;-26.142;27.992;2022-07-23T05:45:24;15.07;;;13.63;;
26478;SDS011;14163;-26.142;27.992;2022-07-23T05:47:53;14.37;;;12.87;;
26478;SDS011;14163;-26.142;27.992;2022-07-23T05:50:22;14.77;;;13.27;;
26478;SDS011;14163;-26.142;27.992;2022-07-23T05:52:53;15.37;;;13.87;;
26478;SDS011;14163;-26.142;27.992;2022-07-23T05:55:22;14.80;;;13.30;;
26478;SDS011;14163;-26.142;27.992;2022-07-23T05:57:52;16.07;;;13.50;;
26478;SDS011;14163;-26.142;27.992;2022-07-23T06:00:22;16.60;;;13.90;;
26478;SDS011;14163;-26.142;27.992;2022-07-23T06:02:52;18.33;;;16.27;;
26478;SDS011;14163;-26.142;27.992;2022-07-23T06:05:21;17.13;;;15.33;;
26478;SDS011;14163;-26.142;27.992;2022-07-23T06:07:50;15.77;;;13.43;;
26478;SDS011;14163;-26.142;27.992;2022-07-23T06:10:21;17.33;;;13.90;;
26478;SDS011;14163;-26.142;27.992;2022-07-23T06:12:52;14.70;;;12.93;;
26478;SDS011;14163;-26.142;27.992;2022-07-23T06:15:22;15.47;;;12.33;;
26478;SDS011;14163;-26.142;27.992;2022-07-23T06:17:51;15.80;;;13.20;;
26478;SDS011;14163;-26.142;27.992;2022-07-23T06:20:20;14.93;;;12.60;;
26478;SDS011;14163;-26.142;27.992;2022-07-23T06:22:50;17.00;;;11.67;;
26478;SDS011;14163;-26.142;27.992;2022-07-23T06:25:20;15.40;;;12.40;;
26478;SDS011;14163;-26.142;27.992;2022-07-23T06:27:49;12.03;;;10.93;;
26478;SDS011;14163;-26.142;27.992;2022-07-23T06:30:21;13.30;;;11.37;;
26478;SDS011;14163;-26.142;27.992;2022-07-23T06:32:50;14.30;;;11.83;;
26478;SDS011;14163;-26.142;27.992;2022-07-23T06:35:20;16.17;;;12.80;;
26478;SDS011;14163;-26.142;27.992;2022-07-23T06:37:49;16.43;;;14.73;;
26478;SDS011;14163;-26.142;27.992;2022-07-23T06:40:19;16.13;;;14.63;;
26478;SDS011;14163;-26.142;27.992;2022-07-23T06:42:49;16.80;;;13.53;;
26478;SDS011;14163;-26.142;27.992;2022-07-23T06:45:22;14.47;;;12.97;;
26478;SDS011;14163;-26.142;27.992;2022-07-23T06:47:52;16.93;;;13.53;;
26478;SDS011;14163;-26.142;27.992;2022-07-23T06:50:21;17.63;;;12.83;;
26478;SDS011;14163;-26.142;27.992;2022-07-23T06:52:51;16.77;;;14.37;;
26478;SDS011;14163;-26.142;27.992;2022-07-23T06:55:20;16.27;;;13.13;;
26478;SDS011;14163;-26.142;27.992;2022-07-23T06:57:53;15.03;;;13.40;;
26478;SDS011;14163;-26.142;27.992;2022-07-23T07:00:22;14.67;;;13.13;;
26478;SDS011;14163;-26.142;27.992;2022-07-23T07:02:53;14.40;;;12.90;;
26478;SDS011;14163;-26.142;27.992;2022-07-23T07:05:24;13.57;;;12.20;;
26478;SDS011;14163;-26.142;27.992;2022-07-23T07:07:53;13.23;;;11.90;;
26478;SDS011;14163;-26.142;27.992;2022-07-23T07:10:23;13.20;;;11.80;;
26478;SDS011;14163;-26.142;27.992;2022-07-23T07:12:55;11.23;;;10.13;;
26478;SDS011;14163;-26.142;27.992;2022-07-23T07:15:24;11.53;;;10.37;;
26478;SDS011;14163;-26.142;27.992;2022-07-23T07:17:53;15.57;;;11.13;;
26478;SDS011;14163;-26.142;27.992;2022-07-23T07:20:23;11.80;;;10.70;;
26478;SDS011;14163;-26.142;27.992;2022-07-23T07:22:52;10.40;;;8.90;;
26478;SDS011;14163;-26.142;27.992;2022-07-23T07:25:21;9.87;;;7.50;;
26478;SDS011;14163;-26.142;27.992;2022-07-23T07:27:51;9.80;;;8.90;;
26478;SDS011;14163;-26.142;27.992;2022-07-23T07:30:22;9.53;;;8.63;;
26478;SDS011;14163;-26.142;27.992;2022-07-23T07:32:51;8.60;;;7.60;;
26478;SDS011;14163;-26.142;27.992;2022-07-23T07:35:20;9.80;;;7.93;;
26478;SDS011;14163;-26.142;27.992;2022-07-23T07:40:26;10.50;;;8.53;;
26478;SDS011;14163;-26.142;27.992;2022-07-23T07:42:55;8.93;;;8.07;;
26478;SDS011;14163;-26.142;27.992;2022-07-23T07:45:27;8.13;;;7.10;;
26478;SDS011;14163;-26.142;27.992;2022-07-23T07:47:58;8.20;;;7.40;;
26478;SDS011;14163;-26.142;27.992;2022-07-23T07:50:30;7.90;;;7.20;;
26478;SDS011;14163;-26.142;27.992;2022-07-23T07:53:00;9.53;;;7.63;;
26478;SDS011;14163;-26.142;27.992;2022-07-23T07:55:29;11.00;;;7.60;;
26478;SDS011;14163;-26.142;27.992;2022-07-23T07:57:58;12.13;;;7.03;;
26478;SDS011;14163;-26.142;27.992;2022-07-23T08:00:29;7.60;;;6.87;;
26478;SDS011;14163;-26.142;27.992;2022-07-23T08:02:59;10.23;;;7.00;;
26478;SDS011;14163;-26.142;27.992;2022-07-23T08:05:28;8.10;;;7.30;;
26478;SDS011;14163;-26.142;27.992;2022-07-23T08:07:58;8.43;;;7.63;;
26478;SDS011;14163;-26.142;27.992;2022-07-23T08:10:28;9.07;;;8.20;;
26478;SDS011;14163;-26.142;27.992;2022-07-23T08:12:58;9.00;;;8.10;;
26478;SDS011;14163;-26.142;27.992;2022-07-23T08:15:29;9.40;;;7.47;;
26478;SDS011;14163;-26.142;27.992;2022-07-23T08:18:00;10.57;;;8.10;;
26478;SDS011;14163;-26.142;27.992;2022-07-23T08:20:29;12.10;;;8.53;;
26478;SDS011;14163;-26.142;27.992;2022-07-23T08:22:59;13.37;;;9.10;;
26478;SDS011;14163;-26.142;27.992;2022-07-23T08:25:31;12.27;;;10.30;;
26478;SDS011;14163;-26.142;27.992;2022-07-23T08:28:02;10.73;;;9.83;;
26478;SDS011;14163;-26.142;27.992;2022-07-23T08:30:34;7.47;;;6.63;;
26478;SDS011;14163;-26.142;27.992;2022-07-23T08:33:05;4.63;;;4.23;;
26478;SDS011;14163;-26.142;27.992;2022-07-23T08:35:38;3.83;;;3.60;;
26478;SDS011;14163;-26.142;27.992;2022-07-23T08:38:09;4.30;;;3.47;;
26478;SDS011;14163;-26.142;27.992;2022-07-23T08:40:39;4.27;;;3.43;;
26478;SDS011;14163;-26.142;27.992;2022-07-23T08:43:10;4.30;;;3.53;;
26478;SDS011;14163;-26.142;27.992;2022-07-23T08:45:44;3.90;;;3.67;;
26478;SDS011;14163;-26.142;27.992;2022-07-23T08:48:17;5.00;;;3.80;;
26478;SDS011;14163;-26.142;27.992;2022-07-23T08:50:48;3.80;;;3.50;;
26478;SDS011;14163;-26.142;27.992;2022-07-23T08:53:18;5.30;;;3.90;;
26478;SDS011;14163;-26.142;27.992;2022-07-23T08:55:49;4.03;;;3.10;;
26478;SDS011;14163;-26.142;27.992;2022-07-23T08:58:20;4.43;;;3.97;;
26478;SDS011;14163;-26.142;27.992;2022-07-23T09:00:51;4.40;;;4.00;;
26478;SDS011;14163;-26.142;27.992;2022-07-23T09:03:22;4.23;;;3.93;;
26478;SDS011;14163;-26.142;27.992;2022-07-23T09:05:52;4.60;;;3.90;;
26478;SDS011;14163;-26.142;27.992;2022-07-23T09:08:23;4.83;;;4.37;;
26478;SDS011;14163;-26.142;27.992;2022-07-23T09:10:54;8.30;;;4.33;;
26478;SDS011;14163;-26.142;27.992;2022-07-23T09:13:25;5.00;;;4.50;;
26478;SDS011;14163;-26.142;27.992;2022-07-23T09:16:01;7.50;;;4.00;;
26478;SDS011;14163;-26.142;27.992;2022-07-23T09:18:33;5.00;;;4.60;;
26478;SDS011;14163;-26.142;27.992;2022-07-23T09:21:07;5.40;;;4.10;;
26478;SDS011;14163;-26.142;27.992;2022-07-23T09:23:39;5.40;;;5.00;;
26478;SDS011;14163;-26.142;27.992;2022-07-23T09:31:49;4.97;;;4.57;;
26478;SDS011;14163;-26.142;27.992;2022-07-23T09:34:19;5.60;;;5.10;;
26478;SDS011;14163;-26.142;27.992;2022-07-23T09:36:50;5.03;;;4.63;;
26478;SDS011;14163;-26.142;27.992;2022-07-23T09:39:28;7.50;;;5.73;;
26478;SDS011;14163;-26.142;27.992;2022-07-23T09:41:58;7.50;;;5.43;;
26478;SDS011;14163;-26.142;27.992;2022-07-23T09:44:43;6.10;;;5.50;;
26478;SDS011;14163;-26.142;27.992;2022-07-23T09:47:16;5.97;;;4.83;;
26478;SDS011;14163;-26.142;27.992;2022-07-23T09:49:57;6.10;;;4.93;;
26478;SDS011;14163;-26.142;27.992;2022-07-23T09:52:31;6.37;;;5.77;;
26478;SDS011;14163;-26.142;27.992;2022-07-23T09:55:03;8.23;;;6.50;;
26478;SDS011;14163;-26.142;27.992;2022-07-23T09:57:33;7.33;;;6.63;;
26478;SDS011;14163;-26.142;27.992;2022-07-23T10:00:05;6.80;;;6.20;;
26478;SDS011;14163;-26.142;27.992;2022-07-23T10:02:40;6.60;;;5.90;;
26478;SDS011;14163;-26.142;27.992;2022-07-23T10:05:09;5.90;;;5.50;;
26478;SDS011;14163;-26.142;27.992;2022-07-23T10:07:39;6.40;;;5.90;;
26478;SDS011;14163;-26.142;27.992;2022-07-23T10:10:09;6.70;;;6.10;;
26478;SDS011;14163;-26.142;27.992;2022-07-23T10:12:39;11.73;;;7.10;;
26478;SDS011;14163;-26.142;27.992;2022-07-23T10:15:44;8.03;;;7.10;;
26478;SDS011;14163;-26.142;27.992;2022-07-23T10:18:15;9.30;;;7.23;;
26478;SDS011;14163;-26.142;27.992;2022-07-23T10:20:46;7.57;;;6.77;;
26478;SDS011;14163;-26.142;27.992;2022-07-23T10:23:19;9.50;;;8.10;;
26478;SDS011;14163;-26.142;27.992;2022-07-23T10:25:55;9.93;;;8.97;;
26478;SDS011;14163;-26.142;27.992;2022-07-23T10:28:41;8.00;;;7.20;;
26478;SDS011;14163;-26.142;27.992;2022-07-23T10:34:17;8.63;;;7.87;;
26478;SDS011;14163;-26.142;27.992;2022-07-23T10:36:53;9.60;;;8.53;;
26478;SDS011;14163;-26.142;27.992;2022-07-23T10:39:28;7.57;;;6.97;;
26478;SDS011;14163;-26.142;27.992;2022-07-23T10:42:07;8.53;;;6.83;;
26478;SDS011;14163;-26.142;27.992;2022-07-23T10:44:41;7.83;;;7.17;;
26478;SDS011;14163;-26.142;27.992;2022-07-23T10:47:13;8.37;;;7.57;;
26478;SDS011;14163;-26.142;27.992;2022-07-23T10:53:09;8.33;;;7.63;;
26478;SDS011;14163;-26.142;27.992;2022-07-23T10:55:45;8.60;;;7.67;;
26478;SDS011;14163;-26.142;27.992;2022-07-23T10:58:19;7.50;;;6.70;;
26478;SDS011;14163;-26.142;27.992;2022-07-23T11:01:31;7.63;;;6.90;;
26478;SDS011;14163;-26.142;27.992;2022-07-23T11:04:04;14.57;;;7.60;;
26478;SDS011;14163;-26.142;27.992;2022-07-23T11:09:41;10.20;;;7.60;;
26478;SDS011;14163;-26.142;27.992;2022-07-23T11:15:04;7.07;;;6.30;;
26478;SDS011;14163;-26.142;27.992;2022-07-23T11:17:35;6.57;;;6.07;;
26478;SDS011;14163;-26.142;27.992;2022-07-23T11:22:58;8.37;;;7.60;;
26478;SDS011;14163;-26.142;27.992;2022-07-23T11:25:33;8.27;;;7.47;;
26478;SDS011;14163;-26.142;27.992;2022-07-23T11:28:14;7.20;;;6.60;;
26478;SDS011;14163;-26.142;27.992;2022-07-23T11:30:46;7.57;;;6.87;;
26478;SDS011;14163;-26.142;27.992;2022-07-23T11:33:16;17.70;;;12.40;;
26478;SDS011;14163;-26.142;27.992;2022-07-23T11:35:59;6.87;;;6.20;;
26478;SDS011;14163;-26.142;27.992;2022-07-23T11:38:30;7.80;;;7.10;;
26478;SDS011;14163;-26.142;27.992;2022-07-23T11:41:01;9.77;;;8.17;;
26478;SDS011;14163;-26.142;27.992;2022-07-23T11:43:30;9.97;;;6.57;;
26478;SDS011;14163;-26.142;27.992;2022-07-23T11:46:00;8.53;;;7.03;;
26478;SDS011;14163;-26.142;27.992;2022-07-23T11:48:30;7.13;;;6.43;;
26478;SDS011;14163;-26.142;27.992;2022-07-23T11:51:01;7.10;;;6.50;;
26478;SDS011;14163;-26.142;27.992;2022-07-23T11:53:30;7.47;;;6.70;;
26478;SDS011;14163;-26.142;27.992;2022-07-23T11:56:04;6.80;;;6.20;;
26478;SDS011;14163;-26.142;27.992;2022-07-23T11:58:34;6.83;;;5.30;;
26478;SDS011;14163;-26.142;27.992;2022-07-23T12:01:03;11.23;;;6.20;;
26478;SDS011;14163;-26.142;27.992;2022-07-23T12:03:33;7.57;;;6.83;;
26478;SDS011;14163;-26.142;27.992;2022-07-23T12:06:04;6.00;;;5.60;;
26478;SDS011;14163;-26.142;27.992;2022-07-23T12:08:33;6.17;;;5.60;;
26478;SDS011;14163;-26.142;27.992;2022-07-23T12:11:09;7.53;;;6.33;;
26478;SDS011;14163;-26.142;27.992;2022-07-23T12:13:40;6.93;;;6.20;;
26478;SDS011;14163;-26.142;27.992;2022-07-23T12:16:10;7.23;;;6.57;;
26478;SDS011;14163;-26.142;27.992;2022-07-23T12:18:40;7.70;;;5.73;;
26478;SDS011;14163;-26.142;27.992;2022-07-23T12:21:11;6.90;;;6.20;;
26478;SDS011;14163;-26.142;27.992;2022-07-23T12:23:40;6.17;;;5.77;;
26478;SDS011;14163;-26.142;27.992;2022-07-23T12:26:10;9.50;;;5.43;;
26478;SDS011;14163;-26.142;27.992;2022-07-23T12:28:39;6.30;;;5.70;;
26478;SDS011;14163;-26.142;27.992;2022-07-23T12:31:10;5.90;;;5.50;;
26478;SDS011;14163;-26.142;27.992;2022-07-23T12:33:41;5.73;;;5.40;;
26478;SDS011;14163;-26.142;27.992;2022-07-23T12:36:12;6.30;;;5.90;;
26478;SDS011;14163;-26.142;27.992;2022-07-23T12:38:46;7.53;;;5.80;;
26478;SDS011;14163;-26.142;27.992;2022-07-23T12:41:16;5.90;;;5.47;;
26478;SDS011;14163;-26.142;27.992;2022-07-23T12:43:46;8.03;;;6.20;;
26478;SDS011;14163;-26.142;27.992;2022-07-23T12:46:15;6.70;;;5.83;;
26478;SDS011;14163;-26.142;27.992;2022-07-23T12:48:50;6.30;;;5.70;;
26478;SDS011;14163;-26.142;27.992;2022-07-23T12:51:21;5.50;;;5.20;;
26478;SDS011;14163;-26.142;27.992;2022-07-23T12:53:52;5.90;;;5.33;;
26478;SDS011;14163;-26.142;27.992;2022-07-23T12:56:26;6.57;;;6.00;;
26478;SDS011;14163;-26.142;27.992;2022-07-23T12:58:57;5.27;;;4.90;;
26478;SDS011;14163;-26.142;27.992;2022-07-23T13:01:33;6.80;;;5.80;;
26478;SDS011;14163;-26.142;27.992;2022-07-23T13:04:03;5.37;;;4.87;;
26478;SDS011;14163;-26.142;27.992;2022-07-23T13:06:36;5.57;;;5.13;;
26478;SDS011;14163;-26.142;27.992;2022-07-23T13:09:07;6.20;;;5.60;;
26478;SDS011;14163;-26.142;27.992;2022-07-23T13:11:38;6.53;;;5.53;;
26478;SDS011;14163;-26.142;27.992;2022-07-23T13:14:08;5.20;;;4.90;;
26478;SDS011;14163;-26.142;27.992;2022-07-23T13:16:37;6.13;;;5.17;;
26478;SDS011;14163;-26.142;27.992;2022-07-23T13:19:07;6.50;;;5.40;;
26478;SDS011;14163;-26.142;27.992;2022-07-23T13:21:38;5.53;;;5.00;;
26478;SDS011;14163;-26.142;27.992;2022-07-23T13:24:08;5.90;;;4.40;;
26478;SDS011;14163;-26.142;27.992;2022-07-23T13:26:39;5.23;;;4.83;;
26478;SDS011;14163;-26.142;27.992;2022-07-23T13:29:09;5.70;;;5.10;;
26478;SDS011;14163;-26.142;27.992;2022-07-23T13:31:39;5.60;;;5.10;;
26478;SDS011;14163;-26.142;27.992;2022-07-23T13:34:08;8.20;;;5.70;;
26478;SDS011;14163;-26.142;27.992;2022-07-23T13:36:39;5.77;;;5.37;;
26478;SDS011;14163;-26.142;27.992;2022-07-23T13:39:09;8.93;;;8.07;;
26478;SDS011;14163;-26.142;27.992;2022-07-23T13:41:38;5.97;;;5.10;;
26478;SDS011;14163;-26.142;27.992;2022-07-23T13:44:07;4.90;;;4.50;;
26478;SDS011;14163;-26.142;27.992;2022-07-23T13:46:37;6.70;;;5.10;;
26478;SDS011;14163;-26.142;27.992;2022-07-23T13:49:06;7.53;;;6.30;;
26478;SDS011;14163;-26.142;27.992;2022-07-23T13:51:36;6.90;;;6.30;;
26478;SDS011;14163;-26.142;27.992;2022-07-23T13:54:07;6.17;;;5.67;;
26478;SDS011;14163;-26.142;27.992;2022-07-23T13:56:37;5.67;;;5.10;;
26478;SDS011;14163;-26.142;27.992;2022-07-23T13:59:06;5.20;;;4.70;;
26478;SDS011;14163;-26.142;27.992;2022-07-23T14:01:37;5.20;;;4.90;;
26478;SDS011;14163;-26.142;27.992;2022-07-23T14:04:09;7.50;;;6.10;;
26478;SDS011;14163;-26.142;27.992;2022-07-23T14:06:40;6.77;;;6.17;;
26478;SDS011;14163;-26.142;27.992;2022-07-23T14:09:09;6.23;;;5.83;;
26478;SDS011;14163;-26.142;27.992;2022-07-23T14:11:38;7.33;;;6.73;;
26478;SDS011;14163;-26.142;27.992;2022-07-23T14:14:08;6.37;;;5.97;;
26478;SDS011;14163;-26.142;27.992;2022-07-23T14:16:37;7.83;;;6.30;;
26478;SDS011;14163;-26.142;27.992;2022-07-23T14:19:06;7.67;;;5.73;;
26478;SDS011;14163;-26.142;27.992;2022-07-23T14:21:36;6.73;;;5.63;;
26478;SDS011;14163;-26.142;27.992;2022-07-23T14:24:07;6.10;;;5.60;;
26478;SDS011;14163;-26.142;27.992;2022-07-23T14:26:36;5.73;;;5.23;;
26478;SDS011;14163;-26.142;27.992;2022-07-23T14:29:06;5.83;;;4.60;;
26478;SDS011;14163;-26.142;27.992;2022-07-23T14:31:35;9.23;;;5.50;;
26478;SDS011;14163;-26.142;27.992;2022-07-23T14:34:04;5.60;;;5.10;;
26478;SDS011;14163;-26.142;27.992;2022-07-23T14:36:33;6.53;;;5.90;;
26478;SDS011;14163;-26.142;27.992;2022-07-23T14:39:05;6.20;;;5.70;;
26478;SDS011;14163;-26.142;27.992;2022-07-23T14:41:35;5.57;;;5.17;;
26478;SDS011;14163;-26.142;27.992;2022-07-23T14:44:04;6.00;;;5.60;;
26478;SDS011;14163;-26.142;27.992;2022-07-23T14:46:34;6.37;;;5.77;;
26478;SDS011;14163;-26.142;27.992;2022-07-23T14:49:03;6.00;;;5.30;;
26478;SDS011;14163;-26.142;27.992;2022-07-23T14:51:33;5.67;;;5.17;;
26478;SDS011;14163;-26.142;27.992;2022-07-23T14:54:02;7.10;;;5.03;;
26478;SDS011;14163;-26.142;27.992;2022-07-23T14:56:34;4.70;;;4.30;;